createdAt,value
2022-11-24T00:01:27.514Z,5.90
2022-11-24T00:04:02.833Z,6.00
2022-11-24T00:06:31.383Z,5.90
2022-11-24T00:08:58.771Z,5.90
2022-11-24T00:11:28.134Z,5.90
2022-11-24T00:13:55.962Z,5.90
2022-11-24T00:16:42.173Z,5.90
2022-11-24T00:19:10.256Z,5.90
2022-11-24T00:21:37.947Z,6.00
2022-11-24T00:24:05.125Z,6.00
2022-11-24T00:26:34.638Z,6.00
2022-11-24T00:29:03.772Z,6.00
2022-11-24T00:31:36.844Z,6.00
2022-11-24T00:34:05.946Z,6.00
2022-11-24T00:36:35.361Z,6.00
2022-11-24T00:39:05.783Z,6.00
2022-11-24T00:41:33.619Z,6.00
2022-11-24T00:44:00.970Z,6.00
2022-11-24T00:46:28.296Z,6.00
2022-11-24T00:48:55.865Z,6.00
2022-11-24T00:51:27.151Z,6.00
2022-11-24T00:53:55.537Z,6.00
2022-11-24T00:56:22.965Z,6.00
2022-11-24T00:58:50.598Z,6.00
2022-11-24T01:01:20.510Z,5.90
2022-11-24T01:03:48.059Z,6.00
2022-11-24T01:06:16.436Z,6.00
2022-11-24T01:08:43.864Z,6.00
2022-11-24T01:11:16.192Z,6.00
2022-11-24T01:13:44.637Z,6.00
2022-11-24T01:16:38.805Z,6.00
2022-11-24T01:19:05.609Z,6.00
2022-11-24T01:21:32.484Z,5.90
2022-11-24T01:23:59.333Z,5.90
2022-11-24T01:26:26.509Z,5.90
2022-11-24T01:28:55.431Z,5.90
2022-11-24T01:31:23.280Z,5.90
2022-11-24T01:33:50.187Z,5.90
2022-11-24T01:36:16.984Z,5.90
2022-11-24T01:38:43.823Z,5.90
2022-11-24T01:41:16.909Z,5.80
2022-11-24T01:43:45.249Z,5.80
2022-11-24T01:46:40.382Z,5.70
2022-11-24T01:49:28.006Z,5.80
2022-11-24T01:52:03.922Z,5.70
2022-11-24T01:54:36.643Z,5.70
2022-11-24T01:57:22.230Z,5.70
2022-11-24T01:59:53.626Z,5.70
2022-11-24T02:02:21.344Z,5.70
2022-11-24T02:04:48.947Z,5.70
2022-11-24T02:07:16.374Z,5.70
2022-11-24T02:09:51.743Z,5.70
2022-11-24T02:12:18.584Z,5.70
2022-11-24T02:14:46.095Z,5.70
2022-11-24T02:17:12.938Z,5.70
2022-11-24T02:19:39.807Z,5.70
2022-11-24T02:22:36.967Z,5.60
2022-11-24T02:25:14.382Z,5.60
2022-11-24T02:27:48.084Z,5.60
2022-11-24T02:30:17.936Z,5.50
2022-11-24T02:32:44.750Z,5.50
2022-11-24T02:35:12.512Z,5.50
2022-11-24T02:37:39.309Z,5.50
2022-11-24T02:40:06.817Z,5.50
2022-11-24T02:42:41.432Z,5.50
2022-11-24T02:45:09.855Z,5.50
2022-11-24T02:47:36.683Z,5.40
2022-11-24T02:50:04.015Z,5.50
2022-11-24T02:52:30.889Z,5.50
2022-11-24T02:54:57.697Z,5.50
2022-11-24T02:57:24.500Z,5.50
2022-11-24T02:59:51.322Z,5.50
2022-11-24T03:02:18.225Z,5.50
2022-11-24T03:04:45.132Z,5.50
2022-11-24T03:07:12.032Z,5.60
2022-11-24T03:09:38.868Z,5.60
2022-11-24T03:12:06.113Z,5.60
2022-11-24T03:14:33.334Z,5.60
2022-11-24T03:17:00.293Z,5.70
2022-11-24T03:19:27.153Z,5.70
2022-11-24T03:21:53.926Z,5.70
2022-11-24T03:24:20.872Z,5.80
2022-11-24T03:26:47.682Z,5.80
2022-11-24T03:29:14.492Z,5.80
2022-11-24T03:31:41.389Z,5.80
2022-11-24T03:34:08.623Z,5.80
2022-11-24T03:36:35.615Z,5.80
2022-11-24T03:39:02.522Z,5.80
2022-11-24T03:41:29.385Z,5.80
2022-11-24T03:43:56.276Z,5.90
2022-11-24T03:46:23.227Z,5.90
2022-11-24T03:48:50.043Z,5.90
2022-11-24T03:51:16.850Z,5.90
2022-11-24T03:53:43.675Z,5.90
2022-11-24T03:56:10.639Z,5.90
2022-11-24T03:58:37.598Z,5.90
2022-11-24T04:01:04.483Z,5.90
2022-11-24T04:03:31.513Z,5.90
2022-11-24T04:05:58.425Z,5.90
2022-11-24T04:08:25.564Z,5.90
2022-11-24T04:10:54.443Z,5.90
2022-11-24T04:13:23.713Z,5.90
2022-11-24T04:15:50.749Z,5.90
2022-11-24T04:18:18.195Z,5.90
2022-11-24T04:20:45.425Z,5.90
2022-11-24T04:23:12.386Z,5.90
2022-11-24T04:25:39.514Z,5.90
2022-11-24T04:28:06.399Z,5.90
2022-11-24T04:30:33.999Z,5.90
2022-11-24T04:33:00.847Z,5.90
2022-11-24T04:35:28.213Z,5.90
2022-11-24T04:37:55.063Z,5.80
2022-11-24T04:40:21.944Z,5.80
2022-11-24T04:42:55.449Z,5.80
2022-11-24T04:45:23.414Z,5.80
2022-11-24T04:47:50.345Z,5.70
2022-11-24T04:50:17.823Z,5.60
2022-11-24T04:52:44.914Z,5.60
2022-11-24T04:55:11.911Z,5.60
2022-11-24T04:57:38.738Z,5.50
2022-11-24T05:00:06.608Z,5.50
2022-11-24T05:02:33.488Z,5.50
2022-11-24T05:05:00.356Z,5.50
2022-11-24T05:07:27.275Z,5.60
2022-11-24T05:10:12.689Z,5.60
2022-11-24T05:12:39.676Z,5.60
2022-11-24T05:15:07.330Z,5.70
2022-11-24T05:17:38.862Z,5.70
2022-11-24T05:20:07.096Z,5.70
2022-11-24T05:22:33.863Z,5.80
2022-11-24T05:25:00.746Z,5.80
2022-11-24T05:27:27.843Z,5.80
2022-11-24T05:29:54.679Z,5.90
2022-11-24T05:32:21.488Z,5.90
2022-11-24T05:34:48.323Z,6.00
2022-11-24T05:37:15.254Z,6.00
2022-11-24T05:39:42.068Z,6.00
2022-11-24T05:42:27.659Z,6.00
2022-11-24T05:44:54.742Z,6.00
2022-11-24T05:47:22.059Z,6.00
2022-11-24T05:49:48.869Z,6.00
2022-11-24T05:52:16.370Z,6.00
2022-11-24T05:54:43.209Z,6.00
2022-11-24T05:57:10.050Z,6.00
2022-11-24T05:59:36.887Z,6.00
2022-11-24T06:02:03.778Z,6.00
2022-11-24T06:04:31.424Z,6.10
2022-11-24T06:06:58.265Z,6.10
2022-11-24T06:09:25.057Z,6.10
2022-11-24T06:11:51.839Z,6.10
2022-11-24T06:14:18.695Z,6.00
2022-11-24T06:16:45.491Z,6.00
2022-11-24T06:19:12.438Z,6.00
2022-11-24T06:21:39.258Z,5.90
2022-11-24T06:24:06.480Z,6.00
2022-11-24T06:26:33.491Z,6.00
2022-11-24T06:29:00.547Z,5.90
2022-11-24T06:31:27.473Z,5.90
2022-11-24T06:33:54.354Z,5.80
2022-11-24T06:36:21.242Z,5.80
2022-11-24T06:38:48.165Z,5.80
2022-11-24T06:41:16.135Z,5.70
2022-11-24T06:43:43.358Z,5.60
2022-11-24T06:46:11.166Z,5.50
2022-11-24T06:48:38.397Z,5.50
2022-11-24T06:51:07.255Z,5.40
2022-11-24T06:53:38.523Z,5.40
2022-11-24T06:56:13.735Z,5.40
2022-11-24T06:58:42.778Z,5.30
2022-11-24T07:01:10.142Z,5.30
2022-11-24T07:03:37.116Z,5.30
2022-11-24T07:06:04.222Z,5.40
2022-11-24T07:08:31.077Z,5.40
2022-11-24T07:11:03.453Z,5.40
2022-11-24T07:13:30.586Z,5.40
2022-11-24T07:15:57.418Z,5.30
2022-11-24T07:18:24.234Z,5.40
2022-11-24T07:20:51.197Z,5.40
2022-11-24T07:23:18.030Z,5.40
2022-11-24T07:25:44.782Z,5.40
2022-11-24T07:28:11.942Z,5.40
2022-11-24T07:30:38.802Z,5.50
2022-11-24T07:33:05.946Z,5.50
2022-11-24T07:35:32.752Z,5.50
2022-11-24T07:37:59.791Z,5.50
2022-11-24T07:40:27.058Z,5.60
2022-11-24T07:42:54.420Z,5.70
2022-11-24T07:45:21.507Z,5.70
2022-11-24T07:47:48.358Z,5.80
2022-11-24T07:50:15.168Z,5.90
2022-11-24T07:52:42.008Z,6.10
2022-11-24T07:55:09.650Z,6.20
2022-11-24T07:57:36.463Z,6.20
2022-11-24T08:00:05.877Z,6.30
2022-11-24T08:02:33.176Z,6.40
2022-11-24T08:05:00.012Z,6.40
2022-11-24T08:07:26.955Z,6.50
2022-11-24T08:09:53.939Z,6.60
2022-11-24T08:12:23.584Z,6.60
2022-11-24T08:14:50.963Z,6.80
2022-11-24T08:17:18.299Z,6.90
2022-11-24T08:19:45.425Z,7.10
2022-11-24T08:22:12.306Z,7.20
2022-11-24T08:24:40.442Z,7.30
2022-11-24T08:27:07.287Z,7.40
2022-11-24T08:29:34.168Z,7.40
2022-11-24T08:32:01.043Z,7.40
2022-11-24T08:34:27.913Z,7.40
2022-11-24T08:36:54.804Z,7.40
2022-11-24T08:39:21.678Z,7.40
2022-11-24T08:41:48.558Z,7.50
2022-11-24T08:44:17.544Z,7.50
2022-11-24T08:46:45.292Z,7.50
2022-11-24T08:49:13.749Z,7.60
2022-11-24T08:51:40.792Z,7.60
2022-11-24T08:54:10.292Z,7.60
2022-11-24T08:56:37.367Z,7.60
2022-11-24T08:59:04.263Z,7.70
2022-11-24T09:01:31.221Z,7.70
2022-11-24T09:03:58.583Z,7.80
2022-11-24T09:06:27.809Z,7.80
2022-11-24T09:08:55.722Z,7.90
2022-11-24T09:11:23.141Z,7.90
2022-11-24T09:13:50.259Z,8.10
2022-11-24T09:16:22.292Z,8.20
2022-11-24T09:18:54.503Z,8.20
2022-11-24T09:21:22.900Z,8.20
2022-11-24T09:23:51.318Z,8.30
2022-11-24T09:26:19.486Z,8.40
2022-11-24T09:28:47.239Z,8.30
2022-11-24T09:31:16.696Z,8.30
2022-11-24T09:33:44.147Z,8.20
2022-11-24T09:36:12.608Z,8.20
2022-11-24T09:38:39.843Z,8.10
2022-11-24T09:41:39.608Z,8.00
2022-11-24T09:44:26.659Z,7.90
2022-11-24T09:47:11.742Z,7.80
2022-11-24T09:49:51.510Z,7.70
2022-11-24T09:52:31.068Z,7.50
2022-11-24T09:55:02.660Z,7.40
2022-11-24T09:57:37.551Z,7.20
2022-11-24T10:00:12.443Z,6.90
2022-11-24T10:02:39.310Z,6.80
2022-11-24T10:05:07.097Z,6.60
2022-11-24T10:07:42.512Z,6.50
2022-11-24T10:10:24.820Z,6.40
2022-11-24T10:13:22.839Z,6.40
2022-11-24T10:16:25.093Z,6.40
2022-11-24T10:19:14.531Z,6.40
2022-11-24T10:22:08.038Z,6.40
2022-11-24T10:25:18.888Z,6.40
2022-11-24T10:27:48.983Z,6.40
2022-11-24T10:30:22.207Z,6.50
2022-11-24T10:32:54.290Z,6.50
2022-11-24T10:35:24.934Z,6.40
2022-11-24T10:38:16.594Z,6.50
2022-11-24T10:40:58.585Z,6.40
2022-11-24T10:43:28.412Z,6.40
2022-11-24T10:46:24.434Z,6.50
2022-11-24T10:49:02.236Z,6.50
2022-11-24T10:51:47.723Z,6.50
2022-11-24T10:54:20.364Z,6.60
2022-11-24T10:56:50.100Z,6.70
2022-11-24T10:59:37.195Z,6.70
2022-11-24T11:02:30.243Z,6.80
2022-11-24T11:04:57.600Z,6.80
2022-11-24T11:07:26.560Z,6.90
2022-11-24T11:10:23.757Z,6.80
2022-11-24T11:12:50.799Z,6.80
2022-11-24T11:15:26.925Z,6.80
2022-11-24T11:17:58.983Z,6.80
2022-11-24T11:20:35.234Z,6.80
2022-11-24T11:23:14.208Z,6.80
2022-11-24T11:25:41.316Z,6.90
2022-11-24T11:28:18.449Z,7.00
2022-11-24T11:31:17.983Z,7.00
2022-11-24T11:34:18.187Z,7.10
2022-11-24T11:36:51.384Z,7.00
2022-11-24T11:39:27.222Z,7.10
2022-11-24T11:42:53.788Z,7.20
2022-11-24T11:45:21.105Z,7.20
2022-11-24T11:48:03.251Z,7.20
2022-11-24T11:53:48.468Z,7.20
2022-11-24T11:56:30.455Z,7.20
2022-11-24T11:59:34.372Z,7.20
2022-11-24T12:02:34.048Z,7.30
2022-11-24T12:05:11.739Z,7.20
2022-11-24T12:07:48.611Z,7.20
2022-11-24T12:10:35.484Z,7.30
2022-11-24T12:13:30.072Z,7.40
2022-11-24T12:16:04.042Z,7.40
2022-11-24T12:18:58.765Z,7.40
2022-11-24T12:21:34.360Z,7.30
2022-11-24T12:24:13.115Z,7.30
2022-11-24T12:27:00.164Z,7.30
2022-11-24T12:29:29.979Z,7.50
2022-11-24T12:32:05.904Z,7.50
2022-11-24T12:34:55.429Z,7.60
2022-11-24T12:37:48.508Z,7.70
2022-11-24T12:40:45.131Z,7.70
2022-11-24T12:43:19.634Z,7.80
2022-11-24T12:46:17.004Z,7.90
2022-11-24T12:49:10.181Z,7.80
2022-11-24T12:51:44.835Z,7.80
2022-11-24T12:54:19.205Z,7.70
2022-11-24T12:56:50.462Z,7.70
2022-11-24T12:59:45.255Z,7.60
2022-11-24T13:02:36.389Z,7.70
2022-11-24T13:05:31.809Z,7.70
2022-11-24T13:08:02.321Z,7.60
2022-11-24T13:13:22.202Z,7.60
2022-11-24T13:18:59.766Z,7.80
2022-11-24T13:21:42.920Z,7.90
2022-11-24T13:24:20.151Z,7.90
2022-11-24T13:27:13.791Z,7.90
2022-11-24T13:29:42.202Z,7.90
2022-11-24T13:32:09.087Z,7.90
2022-11-24T13:34:39.008Z,7.90
2022-11-24T13:37:26.656Z,7.80
2022-11-24T13:40:13.464Z,7.80
2022-11-24T13:43:00.416Z,7.80
2022-11-24T13:45:40.683Z,7.70
2022-11-24T13:48:20.478Z,7.70
2022-11-24T13:50:51.091Z,7.70
2022-11-24T13:53:41.129Z,7.70
2022-11-24T13:56:14.197Z,7.60
2022-11-24T13:58:47.771Z,7.60
2022-11-24T14:01:14.711Z,7.40
2022-11-24T14:06:59.068Z,7.20
2022-11-24T14:09:51.088Z,7.20
2022-11-24T14:12:22.496Z,7.10
2022-11-24T14:14:51.751Z,7.00
2022-11-24T14:17:23.657Z,7.00
2022-11-24T14:19:52.865Z,7.00
2022-11-24T14:22:26.621Z,7.00
2022-11-24T14:24:58.325Z,7.00
2022-11-24T14:27:29.648Z,7.10
2022-11-24T14:30:21.246Z,7.10
2022-11-24T14:32:55.904Z,7.20
2022-11-24T14:35:23.606Z,7.20
2022-11-24T14:37:50.522Z,7.20
2022-11-24T14:40:45.074Z,7.10
2022-11-24T14:43:31.121Z,7.10
2022-11-24T14:46:06.119Z,7.20
2022-11-24T14:48:37.527Z,7.20
2022-11-24T14:51:13.328Z,7.20
2022-11-24T14:53:45.457Z,7.20
2022-11-24T14:56:24.344Z,7.20
2022-11-24T14:58:51.718Z,7.10
2022-11-24T15:01:18.530Z,7.10
2022-11-24T15:03:45.738Z,7.10
2022-11-24T15:06:21.771Z,7.00
2022-11-24T15:08:49.838Z,7.10
2022-11-24T15:11:16.740Z,7.10
2022-11-24T15:13:54.530Z,7.10
2022-11-24T15:16:25.668Z,7.10
2022-11-24T15:18:59.245Z,7.10
2022-11-24T15:21:36.987Z,7.10
2022-11-24T15:24:16.021Z,7.10
2022-11-24T15:26:43.627Z,7.00
2022-11-24T15:29:11.808Z,7.00
2022-11-24T15:31:40.416Z,7.00
2022-11-24T15:34:08.042Z,7.00
2022-11-24T15:36:34.884Z,6.90
2022-11-24T15:39:01.791Z,6.90
2022-11-24T15:41:32.299Z,6.90
2022-11-24T15:44:00.377Z,6.90
2022-11-24T15:46:37.983Z,6.80
2022-11-24T15:49:06.455Z,6.70
2022-11-24T15:51:33.935Z,6.70
2022-11-24T15:54:01.603Z,6.60
2022-11-24T15:56:34.480Z,6.60
2022-11-24T15:59:02.258Z,6.50
2022-11-24T16:01:32.203Z,6.50
2022-11-24T16:03:59.596Z,6.50
2022-11-24T16:06:26.450Z,6.40
2022-11-24T16:08:54.499Z,6.40
2022-11-24T16:11:22.269Z,6.30
2022-11-24T16:13:52.855Z,6.30
2022-11-24T16:16:21.298Z,6.20
2022-11-24T16:18:48.273Z,6.20
2022-11-24T16:21:15.201Z,6.10
2022-11-24T16:23:42.164Z,6.10
2022-11-24T16:26:10.459Z,6.00
2022-11-24T16:28:37.333Z,5.90
2022-11-24T16:31:04.406Z,5.90
2022-11-24T16:33:31.823Z,5.90
2022-11-24T16:35:58.797Z,5.80
2022-11-24T16:38:25.900Z,5.80
2022-11-24T16:40:54.719Z,5.70
2022-11-24T16:43:21.820Z,5.70
2022-11-24T16:46:17.308Z,5.60
2022-11-24T16:48:45.801Z,5.60
2022-11-24T16:51:13.634Z,5.50
2022-11-24T16:53:41.022Z,5.50
2022-11-24T16:56:08.356Z,5.40
2022-11-24T16:58:38.507Z,5.40
2022-11-24T17:01:07.575Z,5.40
2022-11-24T17:03:37.525Z,5.40
2022-11-24T17:06:09.330Z,5.40
2022-11-24T17:08:38.435Z,5.50
2022-11-24T17:11:16.269Z,5.60
2022-11-24T17:13:45.566Z,5.60
2022-11-24T17:16:14.536Z,5.60
2022-11-24T17:18:42.159Z,5.60
2022-11-24T17:21:16.680Z,5.60
2022-11-24T17:23:44.106Z,5.50
2022-11-24T17:26:16.228Z,5.50
2022-11-24T17:28:43.337Z,5.50
2022-11-24T17:31:35.729Z,5.40
2022-11-24T17:34:04.861Z,5.30
2022-11-24T17:36:33.427Z,5.20
2022-11-24T17:39:01.007Z,5.20
2022-11-24T17:41:28.036Z,5.10
2022-11-24T17:43:56.801Z,5.10
2022-11-24T17:46:25.081Z,5.10
2022-11-24T17:48:52.322Z,5.10
2022-11-24T17:51:21.554Z,5.20
2022-11-24T17:53:50.501Z,5.20
2022-11-24T17:56:19.735Z,5.20
2022-11-24T17:58:46.619Z,5.20
2022-11-24T18:01:13.922Z,5.20
2022-11-24T18:03:41.549Z,5.20
2022-11-24T18:06:10.935Z,5.20
2022-11-24T18:08:39.934Z,5.20
2022-11-24T18:11:09.690Z,5.20
2022-11-24T18:16:24.503Z,5.10
2022-11-24T18:19:07.455Z,5.10
2022-11-24T18:21:35.424Z,5.10
2022-11-24T18:24:02.332Z,5.00
2022-11-24T18:26:29.199Z,5.10
2022-11-24T18:28:56.082Z,5.00
2022-11-24T18:31:23.370Z,5.10
2022-11-24T18:33:50.255Z,5.00
2022-11-24T18:36:29.984Z,5.00
2022-11-24T18:39:04.999Z,5.00
2022-11-24T18:41:31.996Z,4.90
2022-11-24T18:44:02.514Z,4.90
2022-11-24T18:46:29.433Z,4.90
2022-11-24T18:48:56.279Z,4.80
2022-11-24T18:51:23.589Z,4.80
2022-11-24T18:53:54.410Z,4.70
2022-11-24T18:56:21.257Z,4.60
2022-11-24T18:58:48.206Z,4.50
2022-11-24T19:01:21.339Z,4.40
2022-11-24T19:03:51.569Z,4.40
2022-11-24T19:06:33.220Z,4.30
2022-11-24T19:09:20.592Z,4.20
2022-11-24T19:11:47.842Z,4.20
2022-11-24T19:14:17.494Z,4.10
2022-11-24T19:16:45.367Z,4.10
2022-11-24T19:19:12.775Z,4.10
2022-11-24T19:21:40.588Z,4.00
2022-11-24T19:24:11.757Z,4.00
2022-11-24T19:26:39.207Z,4.10
2022-11-24T19:29:07.147Z,4.10
2022-11-24T19:31:34.587Z,4.10
2022-11-24T19:34:03.128Z,4.00
2022-11-24T19:36:30.678Z,4.00
2022-11-24T19:38:58.489Z,3.90
2022-11-24T19:41:27.834Z,3.90
2022-11-24T19:43:54.899Z,3.80
2022-11-24T19:46:27.782Z,3.90
2022-11-24T19:48:57.196Z,3.80
2022-11-24T19:51:33.922Z,3.80
2022-11-24T19:54:01.289Z,3.80
2022-11-24T19:56:31.411Z,3.80
2022-11-24T19:58:58.572Z,3.80
2022-11-24T20:01:30.984Z,3.80
2022-11-24T20:04:02.979Z,3.80
2022-11-24T20:06:39.232Z,3.80
2022-11-24T20:09:11.642Z,3.70
2022-11-24T20:11:39.564Z,3.60
2022-11-24T20:14:08.074Z,3.50
2022-11-24T20:16:35.373Z,3.40
2022-11-24T20:19:05.885Z,3.30
2022-11-24T20:21:33.507Z,3.20
2022-11-24T20:24:02.967Z,3.20
2022-11-24T20:26:32.973Z,3.20
2022-11-24T20:29:00.935Z,3.10
2022-11-24T20:31:33.492Z,3.10
2022-11-24T20:34:02.300Z,3.10
2022-11-24T20:36:31.176Z,3.00
2022-11-24T20:39:00.719Z,3.00
2022-11-24T20:41:33.841Z,2.90
2022-11-24T20:44:05.003Z,2.90
2022-11-24T20:46:33.927Z,2.90
2022-11-24T20:49:03.405Z,2.80
2022-11-24T20:51:33.881Z,2.80
2022-11-24T20:54:03.543Z,2.80
2022-11-24T20:56:36.953Z,2.80
2022-11-24T20:59:04.692Z,2.70
2022-11-24T21:01:35.309Z,2.60
2022-11-24T21:04:03.265Z,2.60
2022-11-24T21:06:30.775Z,2.60
2022-11-24T21:09:03.256Z,2.50
2022-11-24T21:11:31.442Z,2.50
2022-11-24T21:13:58.986Z,2.40
2022-11-24T21:16:31.776Z,2.40
2022-11-24T21:19:01.676Z,2.40
2022-11-24T21:21:33.981Z,2.30
2022-11-24T21:24:05.551Z,2.30
2022-11-24T21:26:36.021Z,2.20
2022-11-24T21:29:03.650Z,2.20
2022-11-24T21:31:31.055Z,2.20
2022-11-24T21:33:57.871Z,2.10
2022-11-24T21:36:26.518Z,2.10
2022-11-24T21:38:55.662Z,2.00
2022-11-24T21:41:23.994Z,1.90
2022-11-24T21:43:52.316Z,1.90
2022-11-24T21:46:19.163Z,1.90
2022-11-24T21:48:46.061Z,1.80
2022-11-24T21:51:15.656Z,1.80
2022-11-24T21:53:44.215Z,1.70
2022-11-24T21:56:19.484Z,1.70
2022-11-24T21:58:54.881Z,1.60
2022-11-24T22:01:24.609Z,1.60
2022-11-24T22:03:51.733Z,1.50
2022-11-24T22:06:19.856Z,1.50
2022-11-24T22:08:48.088Z,1.40
2022-11-24T22:11:21.326Z,1.40
2022-11-24T22:13:49.280Z,1.30
2022-11-24T22:16:19.181Z,1.20
2022-11-24T22:18:46.616Z,1.20
2022-11-24T22:21:33.269Z,1.20
2022-11-24T22:24:00.515Z,1.10
2022-11-24T22:26:28.928Z,1.00
2022-11-24T22:28:57.185Z,1.10
2022-11-24T22:31:29.326Z,1.10
2022-11-24T22:33:56.566Z,1.00
2022-11-24T22:36:25.715Z,1.00
2022-11-24T22:39:04.274Z,1.00
2022-11-24T22:41:33.572Z,1.00
2022-11-24T22:44:00.391Z,1.10
2022-11-24T22:46:29.159Z,1.10
2022-11-24T22:48:59.299Z,1.10
2022-11-24T22:51:32.420Z,1.10
2022-11-24T22:54:01.507Z,1.10
2022-11-24T22:56:29.732Z,1.10
2022-11-24T22:58:57.523Z,1.10
2022-11-24T23:01:25.977Z,1.10
2022-11-24T23:03:54.626Z,1.20
2022-11-24T23:06:28.912Z,1.20
2022-11-24T23:08:56.724Z,1.20
2022-11-24T23:11:43.165Z,1.20
2022-11-24T23:14:15.334Z,1.20
2022-11-24T23:16:42.802Z,1.20
2022-11-24T23:19:09.724Z,1.20
2022-11-24T23:21:40.744Z,1.10
2022-11-24T23:24:08.709Z,1.10
2022-11-24T23:26:38.240Z,1.10
2022-11-24T23:29:05.817Z,1.00
2022-11-24T23:31:33.355Z,1.00
2022-11-24T23:34:02.534Z,0.90
2022-11-24T23:36:30.423Z,0.90
2022-11-24T23:39:05.121Z,0.90
2022-11-24T23:41:32.306Z,0.80
2022-11-24T23:43:59.175Z,0.80
2022-11-24T23:46:27.630Z,0.80
2022-11-24T23:48:55.580Z,0.70
2022-11-24T23:51:24.960Z,0.70
2022-11-24T23:53:52.839Z,0.70
2022-11-24T23:56:21.929Z,0.60
2022-11-24T23:58:49.383Z,0.70
